createdAt,value
2023-04-09T00:00:55.321Z,0.00
2023-04-09T00:01:55.557Z,0.00
2023-04-09T00:02:55.947Z,0.00
2023-04-09T00:03:56.275Z,0.00
2023-04-09T00:04:56.425Z,0.00
2023-04-09T00:05:56.760Z,0.00
2023-04-09T00:06:56.973Z,0.00
2023-04-09T00:07:57.282Z,0.00
2023-04-09T00:08:57.504Z,0.00
2023-04-09T00:09:57.820Z,0.00
2023-04-09T00:10:58.029Z,0.00
2023-04-09T00:11:58.357Z,0.00
2023-04-09T00:12:58.573Z,0.00
2023-04-09T00:13:58.918Z,0.00
2023-04-09T00:14:59.136Z,0.00
2023-04-09T00:15:59.474Z,0.00
2023-04-09T00:16:59.678Z,0.00
2023-04-09T00:18:00.135Z,0.00
2023-04-09T00:19:00.265Z,0.00
2023-04-09T00:20:00.474Z,0.00
2023-04-09T00:21:00.710Z,0.00
2023-04-09T00:22:01.019Z,0.00
2023-04-09T00:23:01.232Z,0.00
2023-04-09T00:24:01.579Z,0.00
2023-04-09T00:25:01.785Z,0.00
2023-04-09T00:26:02.124Z,0.00
2023-04-09T00:27:02.352Z,0.00
2023-04-09T00:28:02.697Z,0.00
2023-04-09T00:29:02.909Z,0.00
2023-04-09T00:30:03.229Z,0.00
2023-04-09T00:31:03.431Z,0.00
2023-04-09T00:32:03.868Z,0.00
2023-04-09T00:33:04.043Z,0.00
2023-04-09T00:34:04.368Z,0.00
2023-04-09T00:35:04.585Z,0.00
2023-04-09T00:36:04.863Z,0.00
2023-04-09T00:37:05.050Z,0.00
2023-04-09T00:38:05.384Z,0.00
2023-04-09T00:39:05.616Z,0.00
2023-04-09T00:40:05.841Z,0.00
2023-04-09T00:41:06.061Z,0.00
2023-04-09T00:42:06.392Z,0.00
2023-04-09T00:43:06.613Z,0.00
2023-04-09T00:44:06.965Z,0.00
2023-04-09T00:45:07.175Z,0.00
2023-04-09T00:46:07.514Z,0.00
2023-04-09T00:47:07.742Z,0.00
2023-04-09T00:48:08.060Z,0.00
2023-04-09T00:49:08.294Z,0.00
2023-04-09T00:50:08.511Z,0.00
2023-04-09T00:51:08.719Z,0.00
2023-04-09T00:52:09.045Z,0.00
2023-04-09T00:53:09.250Z,0.00
2023-04-09T00:54:09.610Z,0.00
2023-04-09T00:55:09.846Z,0.00
2023-04-09T00:56:10.057Z,0.00
2023-04-09T00:57:10.388Z,0.00
2023-04-09T00:58:10.736Z,0.00
2023-04-09T00:59:10.959Z,0.00
2023-04-09T01:00:11.189Z,0.00
2023-04-09T01:01:11.511Z,0.00
2023-04-09T01:02:11.758Z,0.00
2023-04-09T01:03:12.055Z,0.00
2023-04-09T01:04:12.298Z,0.00
2023-04-09T01:05:12.506Z,0.00
2023-04-09T01:06:12.836Z,0.00
2023-04-09T01:07:13.071Z,0.00
2023-04-09T01:08:13.292Z,0.00
2023-04-09T01:09:13.520Z,0.00
2023-04-09T01:10:13.745Z,0.00
2023-04-09T01:11:14.048Z,0.00
2023-04-09T01:12:14.386Z,0.00
2023-04-09T01:13:14.591Z,0.00
2023-04-09T01:14:14.957Z,0.00
2023-04-09T01:15:15.163Z,0.00
2023-04-09T01:16:15.523Z,0.00
2023-04-09T01:17:15.714Z,0.00
2023-04-09T01:18:16.059Z,0.00
2023-04-09T01:19:16.292Z,0.00
2023-04-09T01:20:16.519Z,0.00
2023-04-09T01:21:16.735Z,0.00
2023-04-09T01:22:17.071Z,0.00
2023-04-09T01:23:17.418Z,0.00
2023-04-09T01:24:17.637Z,0.00
2023-04-09T01:25:17.853Z,0.00
2023-04-09T01:26:18.187Z,0.00
2023-04-09T01:27:18.413Z,0.00
2023-04-09T01:28:18.745Z,0.00
2023-04-09T01:29:19.100Z,0.00
2023-04-09T01:30:19.318Z,0.00
2023-04-09T01:31:19.639Z,0.00
2023-04-09T01:32:19.981Z,0.00
2023-04-09T01:33:20.187Z,0.00
2023-04-09T01:34:20.541Z,0.00
2023-04-09T01:35:20.771Z,0.00
2023-04-09T01:36:21.092Z,0.00
2023-04-09T01:37:21.315Z,0.00
2023-04-09T01:38:21.632Z,0.00
2023-04-09T01:39:21.973Z,0.00
2023-04-09T01:40:22.217Z,0.00
2023-04-09T01:41:22.523Z,0.00
2023-04-09T01:42:22.861Z,0.00
2023-04-09T01:43:23.102Z,0.00
2023-04-09T01:44:23.348Z,0.00
2023-04-09T01:45:23.586Z,0.00
2023-04-09T01:46:23.834Z,0.00
2023-04-09T01:47:24.082Z,0.00
2023-04-09T01:48:24.280Z,0.00
2023-04-09T01:49:24.504Z,0.00
2023-04-09T01:50:24.817Z,0.00
2023-04-09T01:51:25.047Z,0.00
2023-04-09T01:52:25.356Z,0.00
2023-04-09T01:53:25.587Z,0.00
2023-04-09T01:54:25.934Z,0.00
2023-04-09T01:55:26.139Z,0.00
2023-04-09T01:56:26.491Z,0.00
2023-04-09T01:57:26.711Z,0.00
2023-04-09T01:58:26.935Z,0.00
2023-04-09T01:59:27.171Z,0.00
2023-04-09T02:00:27.443Z,0.00
2023-04-09T02:01:27.661Z,0.00
2023-04-09T02:02:28.020Z,0.00
2023-04-09T02:03:28.343Z,0.00
2023-04-09T02:04:29.533Z,0.00
2023-04-09T02:05:28.856Z,0.00
2023-04-09T02:06:29.187Z,0.00
2023-04-09T02:07:29.402Z,0.00
2023-04-09T02:08:29.734Z,0.00
2023-04-09T02:09:29.975Z,0.00
2023-04-09T02:10:30.291Z,0.00
2023-04-09T02:11:30.512Z,0.00
2023-04-09T02:12:30.839Z,0.00
2023-04-09T02:13:31.046Z,0.00
2023-04-09T02:14:31.382Z,0.00
2023-04-09T02:15:31.672Z,0.00
2023-04-09T02:16:31.855Z,0.00
2023-04-09T02:17:32.100Z,0.00
2023-04-09T02:18:32.306Z,0.00
2023-04-09T02:19:32.629Z,0.00
2023-04-09T02:20:32.870Z,0.00
2023-04-09T02:21:33.077Z,0.00
2023-04-09T02:22:33.419Z,0.00
2023-04-09T02:23:33.663Z,0.00
2023-04-09T02:24:33.981Z,0.00
2023-04-09T02:25:34.207Z,0.00
2023-04-09T02:26:34.443Z,0.00
2023-04-09T02:27:34.653Z,0.00
2023-04-09T02:28:34.986Z,0.00
2023-04-09T02:29:35.216Z,0.00
2023-04-09T02:30:35.554Z,0.00
2023-04-09T02:31:35.748Z,0.00
2023-04-09T02:32:35.956Z,0.00
2023-04-09T02:33:36.135Z,0.00
2023-04-09T02:34:36.494Z,0.00
2023-04-09T02:35:36.735Z,0.00
2023-04-09T02:36:37.063Z,0.00
2023-04-09T02:37:37.279Z,0.00
2023-04-09T02:38:37.598Z,0.00
2023-04-09T02:39:37.823Z,0.00
2023-04-09T02:40:38.052Z,0.00
2023-04-09T02:41:38.285Z,0.00
2023-04-09T02:42:38.515Z,0.00
2023-04-09T02:43:38.743Z,0.00
2023-04-09T02:44:38.997Z,0.00
2023-04-09T02:45:39.229Z,0.00
2023-04-09T02:46:39.654Z,0.00
2023-04-09T02:47:39.840Z,0.00
2023-04-09T02:48:40.183Z,0.00
2023-04-09T02:49:40.399Z,0.00
2023-04-09T02:50:40.622Z,0.00
2023-04-09T02:51:40.843Z,0.00
2023-04-09T02:52:41.070Z,0.00
2023-04-09T02:53:41.306Z,0.00
2023-04-09T02:54:41.557Z,0.00
2023-04-09T02:55:41.775Z,0.00
2023-04-09T02:56:41.993Z,0.00
2023-04-09T02:57:42.326Z,0.00
2023-04-09T02:58:42.549Z,0.00
2023-04-09T02:59:42.791Z,0.00
2023-04-09T03:00:43.029Z,0.00
2023-04-09T03:01:43.363Z,0.00
2023-04-09T03:02:43.633Z,0.00
2023-04-09T03:03:43.945Z,0.00
2023-04-09T03:04:44.043Z,0.00
2023-04-09T03:05:44.263Z,0.00
2023-04-09T03:06:44.494Z,0.00
2023-04-09T03:07:44.742Z,0.00
2023-04-09T03:08:44.965Z,0.00
2023-04-09T03:09:45.191Z,0.00
2023-04-09T03:10:45.417Z,0.00
2023-04-09T03:11:45.655Z,0.00
2023-04-09T03:12:45.872Z,0.00
2023-04-09T03:13:46.221Z,0.00
2023-04-09T03:14:46.544Z,0.00
2023-04-09T03:15:46.838Z,0.00
2023-04-09T03:16:47.106Z,0.00
2023-04-09T03:17:47.312Z,0.00
2023-04-09T03:18:47.507Z,0.00
2023-04-09T03:19:47.763Z,0.00
2023-04-09T03:20:47.964Z,0.00
2023-04-09T03:21:48.334Z,0.00
2023-04-09T03:22:48.549Z,0.00
2023-04-09T03:23:48.907Z,0.00
2023-04-09T03:24:49.147Z,0.00
2023-04-09T03:25:49.373Z,0.00
2023-04-09T03:26:49.594Z,0.00
2023-04-09T03:27:49.938Z,0.00
2023-04-09T03:28:50.592Z,0.00
2023-04-09T03:29:50.534Z,0.00
2023-04-09T03:30:50.819Z,0.00
2023-04-09T03:31:51.052Z,0.00
2023-04-09T03:32:51.332Z,0.00
2023-04-09T03:33:51.580Z,0.00
2023-04-09T03:34:51.849Z,0.00
2023-04-09T03:35:52.128Z,0.00
2023-04-09T03:36:52.391Z,0.00
2023-04-09T03:37:52.604Z,0.00
2023-04-09T03:38:53.288Z,0.00
2023-04-09T03:39:53.274Z,0.00
2023-04-09T03:40:53.500Z,0.00
2023-04-09T03:41:53.732Z,0.00
2023-04-09T03:42:53.968Z,0.00
2023-04-09T03:43:54.302Z,0.00
2023-04-09T03:44:54.526Z,0.00
2023-04-09T03:45:54.777Z,0.00
2023-04-09T03:46:55.033Z,0.00
2023-04-09T03:47:57.472Z,0.00
2023-04-09T03:48:55.553Z,0.00
2023-04-09T03:49:55.766Z,0.00
2023-04-09T03:50:55.989Z,0.00
2023-04-09T03:51:56.230Z,0.00
2023-04-09T03:52:56.489Z,0.00
2023-04-09T03:53:56.704Z,4.00
2023-04-09T03:54:57.023Z,4.00
2023-04-09T03:55:57.247Z,0.00
2023-04-09T03:56:57.494Z,4.00
2023-04-09T03:57:57.722Z,4.00
2023-04-09T03:58:57.972Z,4.00
2023-04-09T03:59:58.314Z,8.00
2023-04-09T04:00:58.542Z,8.00
2023-04-09T04:01:58.940Z,8.00
2023-04-09T04:02:59.218Z,8.00
2023-04-09T04:03:59.356Z,12.00
2023-04-09T04:04:59.571Z,16.00
2023-04-09T04:05:59.826Z,16.00
2023-04-09T04:07:00.113Z,16.00
2023-04-09T04:08:00.331Z,20.00
2023-04-09T04:09:00.569Z,24.00
2023-04-09T04:10:00.915Z,28.00
2023-04-09T04:11:01.138Z,32.00
2023-04-09T04:12:01.472Z,40.00
2023-04-09T04:13:01.789Z,48.00
2023-04-09T04:14:01.989Z,52.00
2023-04-09T04:15:02.212Z,60.00
2023-04-09T04:16:02.456Z,68.00
2023-04-09T04:17:02.692Z,76.00
2023-04-09T04:18:02.892Z,84.00
2023-04-09T04:19:03.105Z,96.00
2023-04-09T04:20:03.478Z,108.00
2023-04-09T04:21:03.681Z,120.00
2023-04-09T04:22:04.006Z,132.00
2023-04-09T04:23:04.353Z,152.00
2023-04-09T04:24:04.572Z,164.00
2023-04-09T04:25:04.810Z,184.00
2023-04-09T04:26:05.030Z,200.00
2023-04-09T04:27:05.250Z,220.00
2023-04-09T04:28:05.593Z,240.00
2023-04-09T04:29:05.847Z,260.00
2023-04-09T04:30:06.098Z,284.00
2023-04-09T04:31:06.342Z,308.00
2023-04-09T04:32:06.671Z,332.00
2023-04-09T04:33:06.900Z,356.00
2023-04-09T04:34:07.122Z,380.00
2023-04-09T04:35:07.409Z,408.00
2023-04-09T04:36:14.687Z,436.00
2023-04-09T04:37:07.848Z,468.00
2023-04-09T04:38:08.176Z,500.00
2023-04-09T04:39:08.402Z,532.00
2023-04-09T04:40:08.741Z,568.00
2023-04-09T04:41:08.947Z,600.00
2023-04-09T04:42:09.290Z,640.00
2023-04-09T04:43:09.513Z,680.00
2023-04-09T04:44:09.836Z,716.00
2023-04-09T04:45:10.091Z,752.00
2023-04-09T04:46:10.347Z,788.00
2023-04-09T04:47:10.533Z,828.00
2023-04-09T04:48:10.870Z,860.00
2023-04-09T04:49:11.089Z,880.00
2023-04-09T04:50:11.435Z,932.00
2023-04-09T04:51:11.680Z,976.00
2023-04-09T04:52:11.933Z,992.00
2023-04-09T04:53:12.122Z,1024.00
2023-04-09T04:54:12.448Z,1068.00
2023-04-09T04:55:12.709Z,1052.00
2023-04-09T04:56:12.934Z,1060.00
2023-04-09T04:57:13.160Z,1140.00
2023-04-09T04:58:13.499Z,1136.00
2023-04-09T04:59:13.719Z,1164.00
2023-04-09T05:00:14.085Z,1144.00
2023-04-09T05:01:14.330Z,1216.00
2023-04-09T05:02:14.644Z,1216.00
2023-04-09T05:03:15.028Z,1292.00
2023-04-09T05:04:15.158Z,1292.00
2023-04-09T05:05:15.403Z,1320.00
2023-04-09T05:06:15.630Z,1356.00
2023-04-09T05:07:15.858Z,1352.00
2023-04-09T05:08:16.188Z,1392.00
2023-04-09T05:09:16.525Z,1380.00
2023-04-09T05:10:16.878Z,1424.00
2023-04-09T05:11:17.095Z,1452.00
2023-04-09T05:12:17.418Z,1552.00
2023-04-09T05:13:17.643Z,1624.00
2023-04-09T05:14:17.876Z,1672.00
2023-04-09T05:15:18.104Z,1696.00
2023-04-09T05:16:18.382Z,1692.00
2023-04-09T05:17:18.600Z,1632.00
2023-04-09T05:18:18.932Z,1668.00
2023-04-09T05:19:19.132Z,1740.00
2023-04-09T05:20:19.468Z,1764.00
2023-04-09T05:21:19.696Z,1844.00
2023-04-09T05:22:20.044Z,1948.00
2023-04-09T05:23:20.302Z,1996.00
2023-04-09T05:24:20.519Z,1964.00
2023-04-09T05:25:20.760Z,1920.00
2023-04-09T05:26:20.983Z,1960.00
2023-04-09T05:27:21.201Z,1976.00
2023-04-09T05:28:21.555Z,1980.00
2023-04-09T05:29:21.757Z,2116.00
2023-04-09T05:30:22.086Z,2136.00
2023-04-09T05:31:22.294Z,2080.00
2023-04-09T05:32:22.648Z,2160.00
2023-04-09T05:33:22.905Z,2168.00
2023-04-09T05:34:23.209Z,2268.00
2023-04-09T05:35:23.434Z,2420.00
2023-04-09T05:36:23.747Z,2544.00
2023-04-09T05:37:23.946Z,2456.00
2023-04-09T05:38:24.271Z,2368.00
2023-04-09T05:39:24.499Z,2536.00
2023-04-09T05:40:24.730Z,2756.00
2023-04-09T05:41:24.957Z,2796.00
2023-04-09T05:42:25.272Z,2752.00
2023-04-09T05:43:25.485Z,2580.00
2023-04-09T05:44:25.815Z,2604.00
2023-04-09T05:45:26.029Z,2584.00
2023-04-09T05:46:26.263Z,2520.00
2023-04-09T05:47:26.478Z,2632.00
2023-04-09T05:48:26.689Z,2764.00
2023-04-09T05:49:26.877Z,2856.00
2023-04-09T05:50:27.206Z,3056.00
2023-04-09T05:51:27.415Z,3232.00
2023-04-09T05:52:27.738Z,3348.00
2023-04-09T05:53:27.939Z,3500.00
2023-04-09T05:54:28.139Z,3620.00
2023-04-09T05:55:28.356Z,3624.00
2023-04-09T05:56:28.576Z,3608.00
2023-04-09T05:57:28.781Z,3696.00
2023-04-09T05:58:29.106Z,3640.00
2023-04-09T05:59:29.311Z,3644.00
2023-04-09T06:00:29.568Z,3640.00
2023-04-09T06:01:29.772Z,3684.00
2023-04-09T06:02:30.128Z,3680.00
2023-04-09T06:03:30.460Z,3680.00
2023-04-09T06:04:30.631Z,3824.00
2023-04-09T06:05:30.848Z,3932.00
2023-04-09T06:06:31.045Z,4092.00
2023-04-09T06:07:31.243Z,4296.00
2023-04-09T06:08:31.575Z,4420.00
2023-04-09T06:09:31.781Z,4404.00
2023-04-09T06:10:32.112Z,4492.00
2023-04-09T06:11:32.314Z,4664.00
2023-04-09T06:12:32.645Z,4820.00
2023-04-09T06:13:32.856Z,4888.00
2023-04-09T06:14:33.259Z,5020.00
2023-04-09T06:15:33.456Z,4836.00
2023-04-09T06:16:33.745Z,4776.00
2023-04-09T06:17:34.073Z,4808.00
2023-04-09T06:18:34.373Z,5444.00
2023-04-09T06:19:34.576Z,6056.00
2023-04-09T06:20:34.917Z,5868.00
2023-04-09T06:21:35.108Z,5832.00
2023-04-09T06:22:35.414Z,6116.00
2023-04-09T06:23:35.723Z,6356.00
2023-04-09T06:24:35.923Z,6120.00
2023-04-09T06:25:36.128Z,5660.00
2023-04-09T06:26:36.331Z,5636.00
2023-04-09T06:27:36.536Z,6312.00
2023-04-09T06:28:36.830Z,6924.00
2023-04-09T06:29:37.026Z,7860.00
2023-04-09T06:30:37.402Z,7488.00
2023-04-09T06:31:37.686Z,6860.00
2023-04-09T06:32:47.251Z,7008.00
2023-04-09T06:33:39.081Z,7328.00
2023-04-09T06:34:38.274Z,6548.00
2023-04-09T06:35:38.500Z,6368.00
2023-04-09T06:36:38.770Z,8384.00
2023-04-09T06:37:38.956Z,8524.00
2023-04-09T06:38:39.277Z,8608.00
2023-04-09T06:39:42.487Z,8280.00
2023-04-09T06:40:40.767Z,8552.00
2023-04-09T06:41:39.981Z,9088.00
2023-04-09T06:42:40.231Z,9932.00
2023-04-09T06:43:40.462Z,9520.00
2023-04-09T06:44:40.712Z,9324.00
2023-04-09T06:45:41.255Z,8832.00
2023-04-09T06:46:41.263Z,9132.00
2023-04-09T06:47:41.423Z,10160.00
2023-04-09T06:48:41.720Z,11044.00
2023-04-09T06:49:41.934Z,12544.00
2023-04-09T06:50:42.129Z,14652.00
2023-04-09T06:51:42.310Z,15296.00
2023-04-09T06:52:42.510Z,14216.00
2023-04-09T06:53:42.734Z,14184.00
2023-04-09T06:54:42.876Z,15488.00
2023-04-09T06:55:43.076Z,16608.00
2023-04-09T06:56:43.263Z,14924.00
2023-04-09T06:57:43.425Z,15424.00
2023-04-09T06:58:43.729Z,17888.00
2023-04-09T06:59:43.902Z,16096.00
2023-04-09T07:00:44.120Z,13120.00
2023-04-09T07:01:44.371Z,13752.00
2023-04-09T07:02:44.790Z,14284.00
2023-04-09T07:03:44.765Z,15872.00
2023-04-09T07:04:45.027Z,19072.00
2023-04-09T07:05:45.214Z,20352.00
2023-04-09T07:06:45.364Z,24576.00
2023-04-09T07:07:45.634Z,23456.00
2023-04-09T07:08:45.797Z,20896.00
2023-04-09T07:09:46.153Z,12368.00
2023-04-09T07:10:46.146Z,18272.00
2023-04-09T07:11:46.304Z,18976.00
2023-04-09T07:12:46.469Z,13976.00
2023-04-09T07:13:46.619Z,20768.00
2023-04-09T07:14:46.773Z,31808.00
2023-04-09T07:15:46.974Z,19360.00
2023-04-09T07:16:47.107Z,35616.00
2023-04-09T07:17:47.321Z,17504.00
2023-04-09T07:18:47.439Z,18688.00
2023-04-09T07:19:47.697Z,32928.00
2023-04-09T07:20:47.863Z,16448.00
2023-04-09T07:21:48.025Z,35936.00
2023-04-09T07:22:48.166Z,36576.00
2023-04-09T07:23:48.316Z,19008.00
2023-04-09T07:24:48.442Z,14480.00
2023-04-09T07:25:48.729Z,13668.00
2023-04-09T07:26:50.512Z,12604.00
2023-04-09T07:27:49.059Z,12132.00
2023-04-09T07:28:49.219Z,13136.00
2023-04-09T07:29:49.369Z,27680.00
2023-04-09T07:30:49.513Z,35424.00
2023-04-09T07:31:49.693Z,37120.00
2023-04-09T07:32:50.079Z,38304.00
2023-04-09T07:33:50.149Z,38560.00
2023-04-09T07:34:50.242Z,37312.00
2023-04-09T07:35:50.583Z,18016.00
2023-04-09T07:36:54.359Z,18720.00
2023-04-09T07:37:50.820Z,30304.00
2023-04-09T07:38:51.251Z,17728.00
2023-04-09T07:39:51.153Z,16960.00
2023-04-09T07:40:51.296Z,31168.00
2023-04-09T07:41:51.439Z,23584.00
2023-04-09T07:42:51.556Z,17312.00
2023-04-09T07:43:51.806Z,20096.00
2023-04-09T07:44:51.952Z,34720.00
2023-04-09T07:45:52.194Z,42560.00
2023-04-09T07:46:52.377Z,46624.00
2023-04-09T07:47:52.572Z,46496.00
2023-04-09T07:48:52.983Z,30464.00
2023-04-09T07:49:52.818Z,28832.00
2023-04-09T07:50:53.010Z,31840.00
2023-04-09T07:51:53.140Z,34368.00
2023-04-09T07:52:53.268Z,26400.00
2023-04-09T07:53:53.386Z,22208.00
2023-04-09T07:54:53.491Z,30112.00
2023-04-09T07:55:53.769Z,25088.00
2023-04-09T07:56:53.895Z,21184.00
2023-04-09T07:57:54.012Z,24544.00
2023-04-09T07:58:54.350Z,23776.00
2023-04-09T07:59:54.247Z,32640.00
2023-04-09T08:00:54.358Z,41216.00
2023-04-09T08:01:54.526Z,40000.00
2023-04-09T08:02:55.080Z,30144.00
2023-04-09T08:03:54.980Z,38976.00
2023-04-09T08:04:55.034Z,40480.00
2023-04-09T08:05:55.054Z,36640.00
2023-04-09T08:06:55.163Z,35936.00
2023-04-09T08:07:55.345Z,49440.00
2023-04-09T08:08:55.432Z,50144.00
2023-04-09T08:09:55.645Z,45152.00
2023-04-09T08:10:55.742Z,51712.00
2023-04-09T08:11:55.857Z,53056.00
2023-04-09T08:12:56.035Z,54208.00
2023-04-09T08:13:56.153Z,34656.00
2023-04-09T08:14:56.218Z,54208.00
2023-04-09T08:15:56.448Z,52640.00
2023-04-09T08:16:56.559Z,57696.00
2023-04-09T08:17:56.655Z,48000.00
2023-04-09T08:18:56.686Z,46656.00
2023-04-09T08:19:56.888Z,20928.00
2023-04-09T08:20:56.963Z,31200.00
2023-04-09T08:21:57.056Z,21760.00
2023-04-09T08:22:57.144Z,32352.00
2023-04-09T08:23:57.353Z,51392.00
2023-04-09T08:24:57.430Z,62048.00
2023-04-09T08:25:57.639Z,57184.00
2023-04-09T08:26:57.759Z,49312.00
2023-04-09T08:27:57.843Z,32192.00
2023-04-09T08:28:57.948Z,32128.00
2023-04-09T08:29:58.038Z,28768.00
2023-04-09T08:30:58.157Z,26976.00
2023-04-09T08:31:58.290Z,59168.00
2023-04-09T08:32:58.416Z,55136.00
2023-04-09T08:33:58.496Z,39040.00
2023-04-09T08:34:58.578Z,37568.00
2023-04-09T08:35:59.228Z,44480.00
2023-04-09T08:36:58.873Z,51872.00
2023-04-09T08:37:58.993Z,62912.00
2023-04-09T08:38:59.078Z,62400.00
2023-04-09T08:39:59.176Z,57664.00
2023-04-09T08:40:59.268Z,64480.00
2023-04-09T08:41:59.383Z,57632.00
2023-04-09T08:42:59.463Z,65280.00
2023-04-09T08:44:00.105Z,65504.00
2023-04-09T08:44:59.669Z,65824.00
2023-04-09T08:45:59.781Z,47552.00
2023-04-09T08:46:59.850Z,39040.00
2023-04-09T08:48:00.046Z,38112.00
2023-04-09T08:49:00.026Z,38528.00
2023-04-09T08:50:00.211Z,24384.00
2023-04-09T08:51:00.253Z,21056.00
2023-04-09T08:52:01.110Z,20576.00
2023-04-09T08:53:00.404Z,20352.00
2023-04-09T08:54:03.242Z,22304.00
2023-04-09T08:55:00.705Z,22240.00
2023-04-09T08:56:00.834Z,22912.00
2023-04-09T08:57:00.893Z,25728.00
2023-04-09T08:58:00.993Z,34304.00
2023-04-09T08:59:01.087Z,67584.00
2023-04-09T09:00:01.201Z,65824.00
2023-04-09T09:01:01.366Z,64288.00
2023-04-09T09:02:01.695Z,66912.00
2023-04-09T09:03:01.742Z,66464.00
2023-04-09T09:04:01.763Z,70368.00
2023-04-09T09:05:01.768Z,68960.00
2023-04-09T09:06:01.859Z,64544.00
2023-04-09T09:07:02.013Z,67520.00
2023-04-09T09:08:02.086Z,52032.00
2023-04-09T09:09:02.167Z,50432.00
2023-04-09T09:10:02.305Z,65984.00
2023-04-09T09:11:02.360Z,65408.00
2023-04-09T09:12:02.443Z,64768.00
2023-04-09T09:13:02.494Z,64224.00
2023-04-09T09:14:02.555Z,66720.00
2023-04-09T09:15:02.649Z,66560.00
2023-04-09T09:16:02.737Z,66784.00
2023-04-09T09:17:02.814Z,63840.00
2023-04-09T09:18:02.889Z,67072.00
2023-04-09T09:19:02.900Z,66656.00
2023-04-09T09:20:02.975Z,67072.00
2023-04-09T09:21:03.038Z,67872.00
2023-04-09T09:22:03.089Z,67712.00
2023-04-09T09:23:03.131Z,63392.00
2023-04-09T09:24:03.161Z,56480.00
2023-04-09T09:25:03.196Z,67264.00
2023-04-09T09:26:03.264Z,65184.00
2023-04-09T09:27:03.313Z,60992.00
2023-04-09T09:28:03.392Z,71712.00
2023-04-09T09:29:03.420Z,68416.00
2023-04-09T09:30:03.474Z,69152.00
2023-04-09T09:31:03.603Z,67104.00
2023-04-09T09:32:03.672Z,66144.00
2023-04-09T09:33:03.709Z,70112.00
2023-04-09T09:34:03.764Z,70624.00
2023-04-09T09:35:04.798Z,73152.00
2023-04-09T09:36:03.943Z,71520.00
2023-04-09T09:37:03.966Z,67616.00
2023-04-09T09:38:04.021Z,65728.00
2023-04-09T09:39:04.102Z,66368.00
2023-04-09T09:40:04.118Z,65344.00
2023-04-09T09:41:04.176Z,70304.00
2023-04-09T09:42:04.208Z,70784.00
2023-04-09T09:43:04.262Z,71584.00
2023-04-09T09:44:04.307Z,69856.00
2023-04-09T09:45:04.383Z,70176.00
2023-04-09T09:46:04.474Z,72192.00
2023-04-09T09:47:04.632Z,67136.00
2023-04-09T09:48:04.575Z,67584.00
2023-04-09T09:49:04.586Z,59584.00
2023-04-09T09:50:04.702Z,71968.00
2023-04-09T09:51:04.709Z,71488.00
2023-04-09T09:52:04.789Z,67648.00
2023-04-09T09:53:04.867Z,73760.00
2023-04-09T09:54:04.852Z,70432.00
2023-04-09T09:55:04.896Z,68896.00
2023-04-09T09:56:05.032Z,68832.00
2023-04-09T09:57:04.928Z,69984.00
2023-04-09T09:58:04.960Z,70016.00
2023-04-09T09:59:05.008Z,66912.00
2023-04-09T10:00:04.992Z,68512.00
2023-04-09T10:01:05.049Z,69888.00
2023-04-09T10:02:05.117Z,73312.00
2023-04-09T10:03:05.350Z,74240.00
2023-04-09T10:04:05.215Z,74048.00
2023-04-09T10:05:05.213Z,72832.00
2023-04-09T10:06:05.280Z,72288.00
2023-04-09T10:07:05.329Z,73248.00
2023-04-09T10:08:05.335Z,71648.00
2023-04-09T10:09:05.369Z,69824.00
2023-04-09T10:10:05.413Z,74464.00
2023-04-09T10:11:05.430Z,75968.00
2023-04-09T10:12:05.433Z,74144.00
2023-04-09T10:13:05.449Z,73344.00
2023-04-09T10:14:05.476Z,75040.00
2023-04-09T10:15:05.499Z,75456.00
2023-04-09T10:16:05.592Z,74496.00
2023-04-09T10:17:05.579Z,74464.00
2023-04-09T10:18:05.718Z,70464.00
2023-04-09T10:19:05.701Z,69952.00
2023-04-09T10:20:05.734Z,68832.00
2023-04-09T10:21:05.811Z,70496.00
2023-04-09T10:22:05.832Z,67872.00
2023-04-09T10:23:05.854Z,67200.00
2023-04-09T10:24:05.878Z,66912.00
2023-04-09T10:25:05.856Z,69184.00
2023-04-09T10:26:05.924Z,66208.00
2023-04-09T10:27:05.930Z,70144.00
2023-04-09T10:28:05.945Z,71392.00
2023-04-09T10:29:05.949Z,75872.00
2023-04-09T10:30:05.975Z,68736.00
2023-04-09T10:31:06.057Z,49760.00
2023-04-09T10:32:06.036Z,63520.00
2023-04-09T10:33:06.108Z,41312.00
2023-04-09T10:34:06.084Z,75040.00
2023-04-09T10:35:06.090Z,70208.00
2023-04-09T10:36:06.147Z,73920.00
2023-04-09T10:37:13.109Z,77120.00
2023-04-09T10:38:06.220Z,40320.00
2023-04-09T10:39:06.227Z,74336.00
2023-04-09T10:40:06.231Z,34848.00
2023-04-09T10:41:06.245Z,62688.00
2023-04-09T10:42:06.287Z,77664.00
2023-04-09T10:43:06.310Z,76768.00
2023-04-09T10:44:06.333Z,73472.00
2023-04-09T10:45:06.354Z,72032.00
2023-04-09T10:46:06.443Z,72000.00
2023-04-09T10:47:06.395Z,71424.00
2023-04-09T10:48:06.503Z,72928.00
2023-04-09T10:49:06.497Z,72736.00
2023-04-09T10:50:06.532Z,62368.00
2023-04-09T10:51:06.604Z,67232.00
2023-04-09T10:52:07.421Z,67072.00
2023-04-09T10:53:06.609Z,70688.00
2023-04-09T10:54:06.605Z,72800.00
2023-04-09T10:55:06.618Z,77632.00
2023-04-09T10:56:06.660Z,73856.00
2023-04-09T10:57:06.634Z,75296.00
2023-04-09T10:58:07.540Z,71904.00
2023-04-09T10:59:06.628Z,72928.00
2023-04-09T11:00:06.644Z,68736.00
2023-04-09T11:01:06.666Z,68832.00
2023-04-09T11:02:06.857Z,69696.00
2023-04-09T11:03:06.873Z,68288.00
2023-04-09T11:04:07.378Z,70816.00
2023-04-09T11:05:06.807Z,68416.00
2023-04-09T11:06:06.809Z,71360.00
2023-04-09T11:07:06.794Z,77088.00
2023-04-09T11:08:06.801Z,74944.00
2023-04-09T11:09:06.793Z,79648.00
2023-04-09T11:10:06.817Z,74560.00
2023-04-09T11:11:06.820Z,68992.00
2023-04-09T11:12:06.805Z,77536.00
2023-04-09T11:13:06.816Z,76480.00
2023-04-09T11:14:06.819Z,77344.00
2023-04-09T11:15:06.823Z,73088.00
2023-04-09T11:16:07.287Z,78656.00
2023-04-09T11:17:06.833Z,71200.00
2023-04-09T11:18:06.863Z,71936.00
2023-04-09T11:19:06.840Z,75104.00
2023-04-09T11:20:06.805Z,71840.00
2023-04-09T11:21:06.779Z,75968.00
2023-04-09T11:22:07.932Z,76352.00
2023-04-09T11:23:06.991Z,75360.00
2023-04-09T11:24:06.979Z,77024.00
2023-04-09T11:25:06.973Z,79136.00
2023-04-09T11:26:06.948Z,79072.00
2023-04-09T11:27:07.079Z,76576.00
2023-04-09T11:28:07.082Z,71488.00
2023-04-09T11:29:07.070Z,67680.00
2023-04-09T11:30:07.061Z,65216.00
2023-04-09T11:31:07.223Z,67712.00
2023-04-09T11:32:07.152Z,62496.00
2023-04-09T11:33:07.186Z,65664.00
2023-04-09T11:34:07.127Z,72032.00
2023-04-09T11:35:07.119Z,69088.00
2023-04-09T11:36:07.214Z,72800.00
2023-04-09T11:37:07.167Z,70560.00
2023-04-09T11:38:07.161Z,70848.00
2023-04-09T11:39:07.160Z,68832.00
2023-04-09T11:40:07.138Z,68128.00
2023-04-09T11:41:07.122Z,69248.00
2023-04-09T11:42:07.115Z,72480.00
2023-04-09T11:43:07.119Z,67424.00
2023-04-09T11:44:07.106Z,73376.00
2023-04-09T11:45:07.108Z,71904.00
2023-04-09T11:46:07.102Z,68800.00
2023-04-09T11:47:07.135Z,69376.00
2023-04-09T11:48:07.154Z,67968.00
2023-04-09T11:49:07.146Z,65216.00
2023-04-09T11:50:07.130Z,67264.00
2023-04-09T11:51:08.104Z,67680.00
2023-04-09T11:52:07.135Z,71584.00
2023-04-09T11:53:09.288Z,71392.00
2023-04-09T11:54:07.171Z,69344.00
2023-04-09T11:55:07.189Z,72416.00
2023-04-09T11:56:07.234Z,70912.00
2023-04-09T11:57:07.264Z,71776.00
2023-04-09T11:58:07.240Z,68416.00
2023-04-09T11:59:07.236Z,70848.00
2023-04-09T12:00:07.240Z,69248.00
2023-04-09T12:01:07.221Z,72640.00
2023-04-09T12:02:07.322Z,73120.00
2023-04-09T12:03:07.554Z,68640.00
2023-04-09T12:04:07.456Z,68288.00
2023-04-09T12:05:07.400Z,73216.00
2023-04-09T12:06:07.365Z,68160.00
2023-04-09T12:07:07.365Z,72672.00
2023-04-09T12:08:07.368Z,72000.00
2023-04-09T12:09:07.350Z,71488.00
2023-04-09T12:10:07.363Z,71168.00
2023-04-09T12:11:07.416Z,71584.00
2023-04-09T12:12:07.429Z,72832.00
2023-04-09T12:13:07.436Z,74368.00
2023-04-09T12:14:07.442Z,73056.00
2023-04-09T12:15:07.462Z,73632.00
2023-04-09T12:16:07.523Z,69440.00
2023-04-09T12:17:07.520Z,70944.00
2023-04-09T12:18:07.600Z,71904.00
2023-04-09T12:19:07.617Z,74176.00
2023-04-09T12:20:07.713Z,70592.00
2023-04-09T12:21:07.701Z,72032.00
2023-04-09T12:22:07.780Z,69152.00